Time;durP1;ratioP1;P1;durP2;ratioP2;P2;SDS_P1;SDS_P2;PMS_P1;PMS_P2;Temp;Humidity;BMP_temperature;BMP_pressure;BME280_temperature;BME280_humidity;BME280_pressure;Samples;Min_cycle;Max_cycle;Signal;HPM_P1;HPM_P2
2022/01/15 00:00:27;;;;;;;8.85;3.17;;;;;;;;;;5032695;28;20044;-64
2022/01/15 00:02:53;;;;;;;8.75;3.30;;;;;;;;;;5038146;28;20083;-64
2022/01/15 00:05:19;;;;;;;9.10;4.03;;;;;;;;;;5032613;28;20029;-65
2022/01/15 00:07:47;;;;;;;7.28;3.60;;;;;;;;;;5032877;28;20039;-64
2022/01/15 00:10:14;;;;;;;10.98;5.13;;;;;;;;;;5028705;28;20076;-65
2022/01/15 00:12:40;;;;;;;9.52;4.50;;;;;;;;;;5034550;28;20053;-65
2022/01/15 00:15:09;;;;;;;8.85;4.15;;;;;;;;;;5028545;28;20029;-64
2022/01/15 00:17:51;;;;;;;9.25;4.28;;;;;;;;;;5031649;28;20477;-64
2022/01/15 00:20:19;;;;;;;8.48;3.65;;;;;;;;;;5022533;28;20156;-65
2022/01/15 00:22:45;;;;;;;8.63;4.03;;;;;;;;;;5030718;28;20388;-64
2022/01/15 00:25:12;;;;;;;9.82;4.22;;;;;;;;;;5032671;28;20038;-65
2022/01/15 00:27:38;;;;;;;8.68;4.55;;;;;;;;;;5034485;28;20503;-65
2022/01/15 00:30:04;;;;;;;10.32;4.38;;;;;;;;;;5033755;28;20087;-65
2022/01/15 00:32:30;;;;;;;9.73;4.20;;;;;;;;;;5040393;28;20499;-65
2022/01/15 00:34:57;;;;;;;10.48;4.20;;;;;;;;;;5032503;28;20045;-64
2022/01/15 00:37:23;;;;;;;7.60;3.10;;;;;;;;;;5031922;28;20069;-65
2022/01/15 00:39:49;;;;;;;4.65;2.40;;;;;;;;;;5033513;28;20500;-64
2022/01/15 00:42:15;;;;;;;8.48;3.45;;;;;;;;;;5032648;28;20029;-65
2022/01/15 00:44:42;;;;;;;7.53;3.15;;;;;;;;;;5032165;28;20029;-65
2022/01/15 00:47:08;;;;;;;5.95;3.13;;;;;;;;;;5030843;28;20543;-65
2022/01/15 00:49:34;;;;;;;6.70;3.22;;;;;;;;;;5033315;28;20029;-65
2022/01/15 00:52:00;;;;;;;8.48;3.40;;;;;;;;;;5033785;28;20028;-65
2022/01/15 00:54:26;;;;;;;7.10;2.67;;;;;;;;;;5035566;28;20080;-64
2022/01/15 00:56:52;;;;;;;4.80;1.92;;;;;;;;;;5030697;28;20029;-65
2022/01/15 00:59:18;;;;;;;11.35;3.65;;;;;;;;;;5031539;28;20040;-63
2022/01/15 01:01:44;;;;;;;14.90;6.22;;;;;;;;;;5032035;28;20518;-63
2022/01/15 01:04:10;;;;;;;11.00;4.55;;;;;;;;;;5036105;28;20346;-63
2022/01/15 01:06:36;;;;;;;10.60;3.88;;;;;;;;;;5034997;28;20028;-63
2022/01/15 01:09:03;;;;;;;11.07;3.65;;;;;;;;;;5034646;28;20477;-63
2022/01/15 01:11:42;;;;;;;8.23;3.20;;;;;;;;;;5033664;28;20357;-63
2022/01/15 01:24:53;;;;;;;5.13;2.50;;;;;;;;;;5025199;28;20033;-63
2022/01/15 01:27:30;;;;;;;5.43;2.60;;;;;;;;;;5032013;28;20488;-63
2022/01/15 01:30:11;;;;;;;5.40;2.67;;;;;;;;;;5030855;28;20029;-63
2022/01/15 01:35:43;;;;;;;7.53;3.35;;;;;;;;;;5033740;28;20036;-63
2022/01/15 01:40:42;;;;;;;5.22;2.58;;;;;;;;;;5035142;28;20029;-63
2022/01/15 01:45:34;;;;;;;8.70;3.65;;;;;;;;;;5034752;28;20044;-63
2022/01/15 01:48:00;;;;;;;8.68;3.50;;;;;;;;;;5031400;28;20060;-63
2022/01/15 01:50:27;;;;;;;9.20;3.33;;;;;;;;;;5034688;28;20087;-63
2022/01/15 01:52:55;;;;;;;6.88;3.15;;;;;;;;;;5030950;28;20472;-63
2022/01/15 01:55:23;;;;;;;6.00;2.80;;;;;;;;;;5031461;28;20029;-63
2022/01/15 01:57:49;;;;;;;7.78;3.03;;;;;;;;;;5033240;28;20029;-63
2022/01/15 02:00:16;;;;;;;6.25;2.67;;;;;;;;;;5032726;28;20029;-63
2022/01/15 02:02:42;;;;;;;5.05;2.40;;;;;;;;;;5039159;28;20017;-63
2022/01/15 02:05:09;;;;;;;6.47;2.58;;;;;;;;;;5033372;28;20099;-63
2022/01/15 02:07:36;;;;;;;5.32;2.40;;;;;;;;;;5033064;28;20473;-63
2022/01/15 02:10:04;;;;;;;5.80;2.65;;;;;;;;;;5033306;28;20500;-63
2022/01/15 02:12:30;;;;;;;6.90;2.83;;;;;;;;;;5035309;28;20481;-63
2022/01/15 02:14:56;;;;;;;6.85;2.97;;;;;;;;;;5030350;28;20041;-63
2022/01/15 02:17:22;;;;;;;5.72;2.70;;;;;;;;;;5035126;28;20486;-63
2022/01/15 02:25:12;;;;;;;5.45;2.78;;;;;;;;;;5032380;28;20057;-63
2022/01/15 02:27:38;;;;;;;5.30;1.77;;;;;;;;;;5033160;28;20030;-63
2022/01/15 02:30:04;;;;;;;4.07;2.00;;;;;;;;;;5032490;28;20151;-63
2022/01/15 02:32:35;;;;;;;6.47;3.03;;;;;;;;;;5037995;28;20021;-63
2022/01/15 02:35:02;;;;;;;7.70;3.17;;;;;;;;;;5034561;28;20045;-63
2022/01/15 02:37:29;;;;;;;6.97;2.55;;;;;;;;;;5030305;28;20499;-63
2022/01/15 02:39:55;;;;;;;5.45;2.30;;;;;;;;;;5034371;28;20102;-63
2022/01/15 02:42:22;;;;;;;6.50;2.30;;;;;;;;;;5034106;28;20033;-63
2022/01/15 02:44:48;;;;;;;4.35;2.10;;;;;;;;;;5029484;28;20025;-62
2022/01/15 02:49:59;;;;;;;4.05;2.03;;;;;;;;;;5029644;28;20161;-63
2022/01/15 02:52:25;;;;;;;4.40;1.98;;;;;;;;;;5029286;28;20660;-63
2022/01/15 02:54:51;;;;;;;4.63;1.90;;;;;;;;;;5034124;28;20083;-62
2022/01/15 02:57:17;;;;;;;6.32;2.60;;;;;;;;;;5029546;28;20153;-65
2022/01/15 02:59:45;;;;;;;3.63;1.80;;;;;;;;;;5031428;28;20104;-64
2022/01/15 03:02:11;;;;;;;;;;;;;;;;;;5034984;28;20057;-63
2022/01/15 03:04:37;;;;;;;3.97;1.50;;;;;;;;;;5033748;28;19964;-64
2022/01/15 03:07:05;;;;;;;3.05;1.60;;;;;;;;;;5031750;28;20477;-64
2022/01/15 03:09:31;;;;;;;3.40;1.52;;;;;;;;;;5033873;28;20527;-64
2022/01/15 03:12:02;;;;;;;3.42;1.77;;;;;;;;;;5033017;28;20037;-65
2022/01/15 03:14:30;;;;;;;6.75;1.73;;;;;;;;;;5028644;28;20075;-64
2022/01/15 03:16:56;;;;;;;2.42;1.00;;;;;;;;;;5031395;28;20049;-64
2022/01/15 03:19:22;;;;;;;1.25;0.63;;;;;;;;;;5030465;28;20021;-65
2022/01/15 03:21:48;;;;;;;3.00;1.10;;;;;;;;;;5031596;28;20083;-63
2022/01/15 03:24:14;;;;;;;3.17;0.90;;;;;;;;;;5031629;28;20037;-66
2022/01/15 03:26:40;;;;;;;3.47;1.65;;;;;;;;;;5029032;28;20040;-66
2022/01/15 03:29:06;;;;;;;3.00;1.20;;;;;;;;;;5030903;28;20465;-67
2022/01/15 03:31:32;;;;;;;2.60;1.30;;;;;;;;;;5030687;28;20079;-66
2022/01/15 03:33:58;;;;;;;3.33;1.05;;;;;;;;;;5036376;28;20041;-66
2022/01/15 03:36:24;;;;;;;4.63;1.20;;;;;;;;;;5032949;28;20469;-66
2022/01/15 03:38:50;;;;;;;4.68;2.00;;;;;;;;;;5034195;28;20045;-66
2022/01/15 03:41:16;;;;;;;4.30;1.50;;;;;;;;;;5032467;28;20114;-66
2022/01/15 03:43:42;;;;;;;4.38;1.70;;;;;;;;;;5028366;28;20033;-66
2022/01/15 03:46:08;;;;;;;3.17;1.45;;;;;;;;;;5029885;28;20037;-67
2022/01/15 03:48:34;;;;;;;2.75;1.33;;;;;;;;;;5034835;28;20061;-66
2022/01/15 03:51:00;;;;;;;1.42;0.90;;;;;;;;;;5028940;28;20412;-66
2022/01/15 03:53:26;;;;;;;2.58;1.02;;;;;;;;;;5031247;28;20041;-66
2022/01/15 03:55:52;;;;;;;1.58;0.77;;;;;;;;;;5028457;28;20029;-66
2022/01/15 03:58:19;;;;;;;2.05;0.98;;;;;;;;;;5029071;28;20159;-66
2022/01/15 04:00:45;;;;;;;3.13;1.40;;;;;;;;;;5031518;28;20075;-66
2022/01/15 04:03:12;;;;;;;2.80;1.10;;;;;;;;;;5037169;28;20465;-67
2022/01/15 04:05:38;;;;;;;2.75;1.30;;;;;;;;;;5031790;28;20493;-66
2022/01/15 04:08:05;;;;;;;4.57;1.65;;;;;;;;;;5033920;28;20025;-66
2022/01/15 04:10:31;;;;;;;3.65;1.35;;;;;;;;;;5024478;28;20030;-66
2022/01/15 04:12:58;;;;;;;2.47;1.30;;;;;;;;;;5033104;28;20083;-66
2022/01/15 04:15:25;;;;;;;1.45;0.73;;;;;;;;;;5028828;28;20111;-66
2022/01/15 04:17:51;;;;;;;2.35;1.13;;;;;;;;;;5033254;28;20017;-66
2022/01/15 04:20:19;;;;;;;2.30;1.00;;;;;;;;;;5027796;28;20041;-66
2022/01/15 04:22:45;;;;;;;;;;;;;;;;;;5021501;28;20031;-66
2022/01/15 04:25:11;;;;;;;3.25;1.27;;;;;;;;;;5030289;28;19916;-66
2022/01/15 04:27:38;;;;;;;3.70;1.38;;;;;;;;;;5030734;28;20033;-66
2022/01/15 04:30:06;;;;;;;1.27;0.82;;;;;;;;;;5031893;28;20443;-67
2022/01/15 04:32:32;;;;;;;2.42;1.00;;;;;;;;;;5036269;28;20388;-67
2022/01/15 04:34:58;;;;;;;1.73;0.75;;;;;;;;;;5031718;28;20044;-66
2022/01/15 04:37:32;;;;;;;2.00;0.73;;;;;;;;;;5027449;28;20042;-67
2022/01/15 04:39:58;;;;;;;1.65;1.00;;;;;;;;;;5032235;28;20026;-67
2022/01/15 04:42:25;;;;;;;4.10;1.95;;;;;;;;;;5032999;28;20036;-67
2022/01/15 04:44:51;;;;;;;4.50;1.67;;;;;;;;;;5031784;28;20032;-66
2022/01/15 04:47:17;;;;;;;2.50;1.35;;;;;;;;;;5031159;28;20025;-66
2022/01/15 04:49:43;;;;;;;4.85;1.77;;;;;;;;;;5028920;28;20040;-66
2022/01/15 04:52:09;;;;;;;2.70;1.33;;;;;;;;;;5042057;28;20485;-66
2022/01/15 04:54:36;;;;;;;3.80;1.30;;;;;;;;;;5033755;28;20048;-66
2022/01/15 04:57:02;;;;;;;3.50;1.90;;;;;;;;;;5031133;28;20537;-66
2022/01/15 04:59:28;;;;;;;3.70;1.90;;;;;;;;;;5031479;28;20033;-66
2022/01/15 05:01:54;;;;;;;3.30;1.70;;;;;;;;;;5031391;28;20033;-66
2022/01/15 05:04:20;;;;;;;2.92;1.45;;;;;;;;;;5027415;28;20109;-66
2022/01/15 05:06:46;;;;;;;6.72;1.40;;;;;;;;;;5034490;28;20033;-66
2022/01/15 05:09:13;;;;;;;1.65;0.90;;;;;;;;;;5032389;28;20037;-66
2022/01/15 05:11:56;;;;;;;3.38;1.40;;;;;;;;;;5035034;28;20045;-66
2022/01/15 05:14:22;;;;;;;3.65;1.50;;;;;;;;;;5038297;28;20396;-66
2022/01/15 05:16:48;;;;;;;5.70;1.90;;;;;;;;;;5045572;28;20025;-66
2022/01/15 05:19:14;;;;;;;3.47;1.50;;;;;;;;;;5032384;28;20037;-66
2022/01/15 05:21:40;;;;;;;3.05;1.40;;;;;;;;;;5048958;28;20024;-66
2022/01/15 05:24:06;;;;;;;3.55;1.30;;;;;;;;;;5036120;28;20055;-66
2022/01/15 05:26:32;;;;;;;1.70;1.00;;;;;;;;;;5034254;28;20029;-66
2022/01/15 05:28:58;;;;;;;2.30;1.20;;;;;;;;;;5036657;28;20041;-66
2022/01/15 05:31:25;;;;;;;1.70;0.90;;;;;;;;;;5030609;28;20033;-66
2022/01/15 05:33:51;;;;;;;1.02;0.70;;;;;;;;;;5037184;28;20041;-67
2022/01/15 05:36:17;;;;;;;2.13;0.98;;;;;;;;;;5036411;28;20385;-65
2022/01/15 05:38:43;;;;;;;4.53;0.90;;;;;;;;;;5034509;28;20048;-65
2022/01/15 05:41:10;;;;;;;1.25;0.75;;;;;;;;;;5034155;28;20033;-64
2022/01/15 05:43:36;;;;;;;1.50;0.80;;;;;;;;;;5031657;28;20025;-64
2022/01/15 05:46:02;;;;;;;1.92;0.90;;;;;;;;;;5033020;28;20028;-63
2022/01/15 05:48:28;;;;;;;3.60;1.67;;;;;;;;;;5035588;28;20104;-64
2022/01/15 05:50:53;;;;;;;3.25;2.05;;;;;;;;;;5038286;28;20499;-63
2022/01/15 05:53:19;;;;;;;6.63;4.85;;;;;;;;;;5041367;28;20116;-64
2022/01/15 05:55:45;;;;;;;4.03;2.45;;;;;;;;;;5032391;28;20625;-63
2022/01/15 05:58:11;;;;;;;3.55;1.58;;;;;;;;;;5031684;28;20037;-63
2022/01/15 06:00:37;;;;;;;2.97;1.60;;;;;;;;;;5035916;28;20033;-68
2022/01/15 06:03:03;;;;;;;2.53;1.50;;;;;;;;;;5034203;28;20025;-66
2022/01/15 06:05:29;;;;;;;2.92;1.50;;;;;;;;;;5034115;28;20060;-66
2022/01/15 06:07:55;;;;;;;2.60;1.45;;;;;;;;;;5033929;28;20068;-66
2022/01/15 06:10:21;;;;;;;2.58;1.25;;;;;;;;;;5029345;28;20022;-67
2022/01/15 06:12:47;;;;;;;2.22;1.23;;;;;;;;;;5044102;28;20474;-65
2022/01/15 06:15:14;;;;;;;3.38;1.10;;;;;;;;;;5046322;28;20063;-66
2022/01/15 06:17:40;;;;;;;2.95;1.20;;;;;;;;;;5038615;28;20025;-67
2022/01/15 06:20:07;;;;;;;2.70;1.40;;;;;;;;;;5032287;28;20045;-67
2022/01/15 06:22:33;;;;;;;2.10;1.13;;;;;;;;;;5044222;28;20026;-64
2022/01/15 06:24:59;;;;;;;2.85;1.00;;;;;;;;;;5031566;28;20540;-64
2022/01/15 06:27:25;;;;;;;5.50;1.20;;;;;;;;;;5017532;28;20112;-66
2022/01/15 06:29:51;;;;;;;1.80;1.00;;;;;;;;;;5022726;28;20025;-61
2022/01/15 06:32:17;;;;;;;1.10;0.65;;;;;;;;;;5025184;28;20033;-67
2022/01/15 06:34:43;;;;;;;2.20;1.00;;;;;;;;;;5020248;28;20040;-64
2022/01/15 06:37:09;;;;;;;1.23;0.80;;;;;;;;;;5028434;28;20460;-66
2022/01/15 06:39:35;;;;;;;2.10;0.90;;;;;;;;;;5023310;28;20033;-66
2022/01/15 06:42:02;;;;;;;1.00;0.80;;;;;;;;;;5029348;28;20037;-65
2022/01/15 06:44:28;;;;;;;1.15;0.70;;;;;;;;;;5023591;28;20378;-64
2022/01/15 06:46:54;;;;;;;1.00;0.57;;;;;;;;;;5016517;28;20103;-63
2022/01/15 06:49:20;;;;;;;1.17;0.60;;;;;;;;;;5014159;28;20083;-65
2022/01/15 06:51:46;;;;;;;0.80;0.55;;;;;;;;;;5027411;28;20025;-62
2022/01/15 06:54:13;;;;;;;1.60;1.10;;;;;;;;;;5017109;28;20052;-63
2022/01/15 06:56:39;;;;;;;0.80;0.60;;;;;;;;;;5016262;28;20025;-61
2022/01/15 06:59:05;;;;;;;1.60;1.10;;;;;;;;;;5015495;28;20448;-63
2022/01/15 07:01:31;;;;;;;2.00;1.10;;;;;;;;;;5026875;28;20033;-64
2022/01/15 07:03:57;;;;;;;3.65;1.10;;;;;;;;;;5026829;28;20071;-63
2022/01/15 07:06:23;;;;;;;2.05;1.20;;;;;;;;;;5025321;28;20458;-69
2022/01/15 07:08:49;;;;;;;1.35;0.75;;;;;;;;;;5019715;28;20053;-63
2022/01/15 07:11:15;;;;;;;2.55;0.98;;;;;;;;;;5021283;28;20025;-63
2022/01/15 07:13:41;;;;;;;2.78;1.48;;;;;;;;;;5013650;28;20038;-63
2022/01/15 07:16:07;;;;;;;1.80;1.02;;;;;;;;;;5029336;28;20483;-66
2022/01/15 07:18:33;;;;;;;1.35;0.95;;;;;;;;;;5027847;28;20040;-64
2022/01/15 07:20:59;;;;;;;1.77;0.88;;;;;;;;;;5019126;28;20393;-64
2022/01/15 07:23:25;;;;;;;2.10;0.93;;;;;;;;;;5015804;28;20026;-65
2022/01/15 07:25:51;;;;;;;3.20;1.20;;;;;;;;;;5014836;28;20060;-64
2022/01/15 07:28:18;;;;;;;5.47;2.20;;;;;;;;;;5012017;28;20489;-60
2022/01/15 07:30:45;;;;;;;5.40;1.53;;;;;;;;;;5025923;28;20022;-64
2022/01/15 07:33:12;;;;;;;3.15;1.50;;;;;;;;;;5015314;28;20034;-66
2022/01/15 07:35:38;;;;;;;2.55;1.30;;;;;;;;;;5015029;28;20041;-66
2022/01/15 07:38:04;;;;;;;6.18;2.10;;;;;;;;;;5014968;28;20046;-67
2022/01/15 07:40:30;;;;;;;6.05;2.85;;;;;;;;;;5015948;28;20163;-66
2022/01/15 07:42:56;;;;;;;4.93;2.03;;;;;;;;;;5013048;28;20101;-67
2022/01/15 07:45:22;;;;;;;3.33;1.73;;;;;;;;;;5015464;28;20025;-66
2022/01/15 07:47:48;;;;;;;3.90;1.55;;;;;;;;;;5014702;28;20441;-65
2022/01/15 07:50:23;;;;;;;2.28;1.27;;;;;;;;;;5015966;28;20034;-64
2022/01/15 07:52:49;;;;;;;4.07;1.20;;;;;;;;;;5013834;28;20056;-66
2022/01/15 07:55:15;;;;;;;4.72;1.20;;;;;;;;;;5017716;28;20052;-66
2022/01/15 07:57:43;;;;;;;2.55;1.15;;;;;;;;;;5014340;28;20027;-66
2022/01/15 08:00:10;;;;;;;2.90;1.45;;;;;;;;;;5021464;28;20136;-69
2022/01/15 08:02:36;;;;;;;4.43;1.08;;;;;;;;;;5019304;28;20045;-64
2022/01/15 08:05:02;;;;;;;6.40;1.90;;;;;;;;;;5022051;28;20068;-66
2022/01/15 08:07:28;;;;;;;4.43;2.38;;;;;;;;;;5026815;28;20096;-67
2022/01/15 08:09:54;;;;;;;5.03;1.73;;;;;;;;;;5016783;28;20029;-67
2022/01/15 08:12:22;;;;;;;3.70;1.70;;;;;;;;;;5015267;28;20054;-68
2022/01/15 08:14:49;;;;;;;4.53;1.70;;;;;;;;;;5027910;28;20483;-69
2022/01/15 08:17:15;;;;;;;5.07;2.00;;;;;;;;;;5022912;28;20026;-71
2022/01/15 08:19:41;;;;;;;3.58;1.40;;;;;;;;;;5026366;28;20028;-70
2022/01/15 08:22:07;;;;;;;4.72;1.50;;;;;;;;;;5026547;28;20087;-67
2022/01/15 08:24:33;;;;;;;4.68;1.40;;;;;;;;;;5031088;28;20026;-68
2022/01/15 08:26:59;;;;;;;4.72;2.13;;;;;;;;;;5023746;28;20461;-74
2022/01/15 08:29:25;;;;;;;4.88;2.88;;;;;;;;;;5024388;28;20053;-70
2022/01/15 08:31:51;;;;;;;6.13;3.55;;;;;;;;;;5024942;28;20041;-70
2022/01/15 08:34:17;;;;;;;4.70;2.47;;;;;;;;;;5022240;28;20049;-67
2022/01/15 08:36:43;;;;;;;5.57;2.67;;;;;;;;;;5029866;28;20096;-67
2022/01/15 08:39:09;;;;;;;5.28;2.60;;;;;;;;;;5014966;28;20032;-68
2022/01/15 08:41:35;;;;;;;4.13;2.33;;;;;;;;;;5019430;28;20023;-66
2022/01/15 08:44:01;;;;;;;5.53;3.72;;;;;;;;;;5032315;28;20033;-70
2022/01/15 08:46:27;;;;;;;7.10;3.80;;;;;;;;;;5017541;28;20393;-67
2022/01/15 08:48:53;;;;;;;6.70;3.28;;;;;;;;;;5022615;28;20044;-65
2022/01/15 08:51:19;;;;;;;4.80;2.53;;;;;;;;;;5020545;28;20022;-67
2022/01/15 08:53:46;;;;;;;6.40;2.90;;;;;;;;;;5027628;28;20036;-66
2022/01/15 08:56:12;;;;;;;5.43;2.88;;;;;;;;;;5035559;28;20026;-67
2022/01/15 08:58:38;;;;;;;5.32;2.75;;;;;;;;;;5016607;28;20041;-68
2022/01/15 09:01:04;;;;;;;5.05;2.80;;;;;;;;;;5029059;28;20030;-69
2022/01/15 09:03:33;;;;;;;5.05;2.30;;;;;;;;;;5033835;28;20013;-70
2022/01/15 09:05:59;;;;;;;4.95;2.35;;;;;;;;;;5021719;28;20762;-67
2022/01/15 09:08:27;;;;;;;6.82;2.85;;;;;;;;;;5016502;28;20113;-67
2022/01/15 09:10:53;;;;;;;5.78;2.55;;;;;;;;;;5022622;28;20044;-68
2022/01/15 09:13:19;;;;;;;4.75;2.45;;;;;;;;;;5013583;28;20025;-67
2022/01/15 09:15:46;;;;;;;5.10;2.50;;;;;;;;;;5031528;28;20026;-64
2022/01/15 09:18:12;;;;;;;8.23;3.72;;;;;;;;;;5020677;28;20036;-69
2022/01/15 09:20:38;;;;;;;6.30;2.97;;;;;;;;;;5024368;28;20080;-66
2022/01/15 09:23:04;;;;;;;5.80;2.95;;;;;;;;;;5019212;28;20036;-67
2022/01/15 09:25:30;;;;;;;4.05;2.03;;;;;;;;;;5040825;28;20037;-68
2022/01/15 09:30:41;;;;;;;4.57;2.15;;;;;;;;;;5026426;28;20400;-66
2022/01/15 09:33:07;;;;;;;3.38;1.80;;;;;;;;;;5016837;28;20018;-66
2022/01/15 09:35:34;;;;;;;3.17;1.90;;;;;;;;;;5026901;28;20041;-66
2022/01/15 09:38:00;;;;;;;4.30;2.10;;;;;;;;;;5015255;28;20480;-70
2022/01/15 09:40:27;;;;;;;3.22;1.60;;;;;;;;;;5018593;28;20037;-65
2022/01/15 09:42:53;;;;;;;3.67;2.00;;;;;;;;;;5014077;28;20096;-68
2022/01/15 09:45:20;;;;;;;3.28;1.73;;;;;;;;;;5019360;28;20026;-68
2022/01/15 09:47:46;;;;;;;3.92;1.90;;;;;;;;;;5015637;28;20085;-65
2022/01/15 09:50:14;;;;;;;3.60;2.15;;;;;;;;;;5014396;28;20022;-65
2022/01/15 09:52:40;;;;;;;4.03;2.13;;;;;;;;;;5027200;28;20026;-64
2022/01/15 09:55:09;;;;;;;4.57;2.15;;;;;;;;;;5040586;28;20041;-64
2022/01/15 09:57:35;;;;;;;;;;;;;;;;;;5014648;28;20014;-61
2022/01/15 10:00:07;;;;;;;2.72;1.63;;;;;;;;;;5021305;28;20015;-67
2022/01/15 10:02:33;;;;;;;3.83;1.73;;;;;;;;;;5020241;28;20060;-66
2022/01/15 10:04:59;;;;;;;3.95;1.90;;;;;;;;;;5027203;28;20108;-65
2022/01/15 10:07:28;;;;;;;2.80;1.50;;;;;;;;;;5026699;28;20449;-66
2022/01/15 10:09:54;;;;;;;4.18;1.38;;;;;;;;;;5028167;28;20044;-62
2022/01/15 10:12:26;;;;;;;3.30;1.50;;;;;;;;;;5028299;28;20087;-66
2022/01/15 10:14:52;;;;;;;2.97;1.23;;;;;;;;;;5027585;28;20463;-67
2022/01/15 10:17:24;;;;;;;2.97;1.60;;;;;;;;;;5026053;28;20153;-66
2022/01/15 10:19:50;;;;;;;2.67;1.38;;;;;;;;;;5025554;28;20021;-70
2022/01/15 10:22:23;;;;;;;2.67;1.02;;;;;;;;;;5026145;28;20549;-69
2022/01/15 10:25:00;;;;;;;4.68;2.42;;;;;;;;;;5027564;28;20025;-71
2022/01/15 10:27:47;;;;;;;3.55;1.70;;;;;;;;;;5027712;28;20021;-65
2022/01/15 10:30:19;;;;;;;7.18;3.10;;;;;;;;;;5027639;28;20033;-66
2022/01/15 10:32:58;;;;;;;5.68;2.67;;;;;;;;;;5024090;28;20026;-65
2022/01/15 10:35:25;;;;;;;2.15;1.40;;;;;;;;;;5021983;28;20057;-64
2022/01/15 10:37:56;;;;;;;3.72;1.73;;;;;;;;;;5024424;28;20409;-66
2022/01/15 10:40:25;;;;;;;2.00;1.48;;;;;;;;;;5025342;28;20455;-61
2022/01/15 10:43:00;;;;;;;2.60;1.45;;;;;;;;;;5026874;28;20017;-66
2022/01/15 10:45:34;;;;;;;3.45;1.48;;;;;;;;;;5027847;28;20114;-63
2022/01/15 10:48:02;;;;;;;3.85;1.48;;;;;;;;;;5025632;28;20055;-63
2022/01/15 10:50:34;;;;;;;2.15;1.30;;;;;;;;;;5025841;28;20032;-64
2022/01/15 10:53:10;;;;;;;3.25;1.50;;;;;;;;;;5025990;28;20051;-63
2022/01/15 10:55:36;;;;;;;2.08;1.02;;;;;;;;;;5024644;28;20045;-67
2022/01/15 10:58:06;;;;;;;2.83;1.30;;;;;;;;;;5042066;28;20026;-69
2022/01/15 11:00:36;;;;;;;1.33;0.90;;;;;;;;;;5024977;28;20025;-65
2022/01/15 11:03:03;;;;;;;1.17;0.93;;;;;;;;;;5025947;28;20025;-67
2022/01/15 11:05:38;;;;;;;1.85;1.08;;;;;;;;;;5025895;28;20036;-66
2022/01/15 11:08:09;;;;;;;2.72;1.02;;;;;;;;;;5021990;28;20500;-66
2022/01/15 11:10:38;;;;;;;2.67;0.90;;;;;;;;;;5025258;28;20021;-70
2022/01/15 11:13:07;;;;;;;2.22;1.13;;;;;;;;;;5024447;28;20026;-68
2022/01/15 11:15:34;;;;;;;2.20;1.25;;;;;;;;;;5027505;28;20037;-67
2022/01/15 11:18:01;;;;;;;1.88;0.98;;;;;;;;;;5025608;28;20505;-67
2022/01/15 11:20:30;;;;;;;2.88;1.13;;;;;;;;;;5023190;28;20033;-67
2022/01/15 11:22:56;;;;;;;2.35;0.98;;;;;;;;;;5025512;28;20064;-69
2022/01/15 11:25:23;;;;;;;1.48;1.00;;;;;;;;;;5027279;28;20041;-65
2022/01/15 11:27:49;;;;;;;1.95;0.82;;;;;;;;;;5027188;28;20039;-65
2022/01/15 11:30:18;;;;;;;1.63;0.75;;;;;;;;;;5024902;28;20025;-73
2022/01/15 11:32:44;;;;;;;2.80;1.15;;;;;;;;;;5025922;28;20064;-67
2022/01/15 11:35:10;;;;;;;1.38;0.80;;;;;;;;;;5029923;28;20695;-66
2022/01/15 11:37:43;;;;;;;3.22;0.85;;;;;;;;;;5027079;28;20056;-67
2022/01/15 11:40:28;;;;;;;1.10;0.68;;;;;;;;;;5028448;28;20100;-67
2022/01/15 11:42:54;;;;;;;1.40;0.70;;;;;;;;;;5029552;28;20025;-67
2022/01/15 11:45:35;;;;;;;0.90;0.50;;;;;;;;;;5028199;28;20526;-67
2022/01/15 11:48:19;;;;;;;0.85;0.70;;;;;;;;;;5025770;28;20480;-67
2022/01/15 11:50:45;;;;;;;2.28;0.40;;;;;;;;;;5026012;28;20057;-69
2022/01/15 11:53:31;;;;;;;1.42;0.40;;;;;;;;;;5027786;28;20119;-71
2022/01/15 11:56:15;;;;;;;0.90;0.50;;;;;;;;;;5027837;28;20489;-71
2022/01/15 11:58:41;;;;;;;1.00;0.43;;;;;;;;;;5027281;28;20029;-71
2022/01/15 12:01:07;;;;;;;1.42;0.70;;;;;;;;;;5030020;28;20021;-71
2022/01/15 12:03:39;;;;;;;0.85;0.50;;;;;;;;;;5031775;28;20032;-71
2022/01/15 12:06:06;;;;;;;1.15;0.47;;;;;;;;;;5029593;28;20029;-69
2022/01/15 12:08:32;;;;;;;1.02;0.50;;;;;;;;;;5030628;28;20475;-70
2022/01/15 12:10:59;;;;;;;1.27;0.57;;;;;;;;;;5027947;28;20028;-69
2022/01/15 12:13:26;;;;;;;1.42;0.50;;;;;;;;;;5030278;28;20114;-72
2022/01/15 12:16:11;;;;;;;0.77;0.52;;;;;;;;;;5028942;28;20140;-69
2022/01/15 12:18:44;;;;;;;1.58;0.60;;;;;;;;;;5048160;28;20060;-72
2022/01/15 12:21:10;;;;;;;0.60;0.40;;;;;;;;;;5031171;28;20115;-68
2022/01/15 12:23:36;;;;;;;1.50;0.43;;;;;;;;;;5034033;28;20038;-70
2022/01/15 12:26:08;;;;;;;0.80;0.40;;;;;;;;;;5032513;28;20388;-69
2022/01/15 12:28:34;;;;;;;0.85;0.40;;;;;;;;;;5032929;28;20033;-71
2022/01/15 12:31:00;;;;;;;1.00;0.30;;;;;;;;;;5031993;28;20044;-70
2022/01/15 12:33:26;;;;;;;0.70;0.40;;;;;;;;;;5032150;28;20037;-68
2022/01/15 12:35:53;;;;;;;0.30;0.30;;;;;;;;;;5030138;28;20097;-67
2022/01/15 12:38:28;;;;;;;0.60;0.40;;;;;;;;;;5030843;28;20039;-67
2022/01/15 12:41:05;;;;;;;1.83;0.38;;;;;;;;;;5030736;28;20040;-69
2022/01/15 12:43:31;;;;;;;0.75;0.50;;;;;;;;;;5029802;28;20049;-65
2022/01/15 12:46:06;;;;;;;0.90;0.50;;;;;;;;;;5032009;28;20185;-71
2022/01/15 12:48:33;;;;;;;0.70;0.38;;;;;;;;;;5031905;28;20017;-66
2022/01/15 12:51:10;;;;;;;0.40;0.30;;;;;;;;;;5029621;28;20062;-68
2022/01/15 12:53:38;;;;;;;0.47;0.40;;;;;;;;;;5030186;28;20124;-68
2022/01/15 12:56:12;;;;;;;0.95;0.30;;;;;;;;;;5030247;28;20505;-66
2022/01/15 12:58:39;;;;;;;1.20;0.40;;;;;;;;;;5030452;28;20408;-71
2022/01/15 13:01:06;;;;;;;0.70;0.40;;;;;;;;;;5030671;28;20030;-71
2022/01/15 13:03:35;;;;;;;1.20;0.50;;;;;;;;;;5029243;28;20029;-71
2022/01/15 13:06:02;;;;;;;0.32;0.32;;;;;;;;;;5029350;28;20024;-71
2022/01/15 13:08:46;;;;;;;0.95;0.47;;;;;;;;;;5031287;28;20143;-71
2022/01/15 13:13:39;;;;;;;1.40;0.60;;;;;;;;;;5030121;28;20045;-65
2022/01/15 13:16:05;;;;;;;1.98;0.55;;;;;;;;;;5030883;28;20018;-67
2022/01/15 13:18:34;;;;;;;0.73;0.50;;;;;;;;;;5030139;28;20104;-68
2022/01/15 13:21:01;;;;;;;1.02;0.70;;;;;;;;;;5030418;28;20083;-67
2022/01/15 13:23:34;;;;;;;2.03;1.00;;;;;;;;;;5030306;28;20035;-66
2022/01/15 13:26:02;;;;;;;6.03;2.65;;;;;;;;;;5027783;28;20432;-68
2022/01/15 13:28:28;;;;;;;2.87;1.30;;;;;;;;;;5030881;28;20030;-67
2022/01/15 13:30:54;;;;;;;3.53;1.60;;;;;;;;;;5029966;28;20036;-68
2022/01/15 13:33:20;;;;;;;2.83;1.45;;;;;;;;;;5029198;28;20397;-67
2022/01/15 13:35:46;;;;;;;6.72;3.15;;;;;;;;;;5030153;28;20072;-67
2022/01/15 13:38:14;;;;;;;1.83;0.95;;;;;;;;;;5029745;28;20497;-66
2022/01/15 13:40:44;;;;;;;190.75;78.22;;;;;;;;;;5029383;28;20060;-67
2022/01/15 13:43:12;;;;;;;131.90;63.20;;;;;;;;;;5028866;28;20080;-69
2022/01/15 13:45:40;;;;;;;10.95;5.35;;;;;;;;;;5030100;28;20017;-66
2022/01/15 13:48:17;;;;;;;7.78;3.78;;;;;;;;;;5030150;28;20536;-66
2022/01/15 13:53:38;;;;;;;7.65;3.15;;;;;;;;;;5022139;28;20040;-67
2022/01/15 13:56:12;;;;;;;4.50;1.65;;;;;;;;;;5025850;28;20030;-66
2022/01/15 13:58:38;;;;;;;5.07;2.28;;;;;;;;;;5015924;28;20068;-69
2022/01/15 14:01:16;;;;;;;3.63;1.70;;;;;;;;;;5027465;28;20060;-63
2022/01/15 14:03:42;;;;;;;5.95;2.72;;;;;;;;;;5015319;28;20018;-69
2022/01/15 14:06:08;;;;;;;5.80;3.10;;;;;;;;;;5017045;28;20052;-70
2022/01/15 14:08:34;;;;;;;5.35;3.10;;;;;;;;;;5016725;28;20037;-69
2022/01/15 14:11:00;;;;;;;7.13;3.17;;;;;;;;;;5022101;28;20497;-68
2022/01/15 14:13:29;;;;;;;5.47;3.05;;;;;;;;;;5012151;28;20036;-70
2022/01/15 14:15:55;;;;;;;6.03;3.33;;;;;;;;;;5027507;28;20108;-72
2022/01/15 14:18:30;;;;;;;5.30;2.50;;;;;;;;;;5028238;28;20104;-72
2022/01/15 14:23:28;;;;;;;6.60;2.90;;;;;;;;;;5023132;28;20100;-68
2022/01/15 14:25:54;;;;;;;6.28;3.42;;;;;;;;;;5015280;28;20029;-70
2022/01/15 14:28:23;;;;;;;6.30;2.97;;;;;;;;;;5013464;28;20024;-69
2022/01/15 14:30:54;;;;;;;6.28;2.47;;;;;;;;;;5026257;28;20117;-68
2022/01/15 14:33:20;;;;;;;6.00;2.80;;;;;;;;;;5016056;28;20446;-68
2022/01/15 14:35:46;;;;;;;5.63;2.60;;;;;;;;;;5027662;28;20120;-73
2022/01/15 14:38:13;;;;;;;6.90;2.35;;;;;;;;;;5027369;28;20046;-69
2022/01/15 14:40:39;;;;;;;6.93;3.05;;;;;;;;;;5022912;28;20460;-71
2022/01/15 14:43:25;;;;;;;6.03;2.67;;;;;;;;;;5026948;28;20104;-69
2022/01/15 14:45:51;;;;;;;6.97;2.88;;;;;;;;;;5023488;28;20021;-69
2022/01/15 14:48:19;;;;;;;6.07;2.88;;;;;;;;;;5020392;28;20080;-69
2022/01/15 14:50:45;;;;;;;5.85;2.65;;;;;;;;;;5025752;28;20018;-70
2022/01/15 14:53:11;;;;;;;6.00;3.28;;;;;;;;;;5025738;28;20022;-68
2022/01/15 14:55:37;;;;;;;6.20;2.83;;;;;;;;;;5024675;28;20045;-69
2022/01/15 14:58:03;;;;;;;7.30;2.67;;;;;;;;;;5031007;28;20028;-69
2022/01/15 15:00:31;;;;;;;5.68;2.97;;;;;;;;;;5028565;28;20022;-69
2022/01/15 15:02:57;;;;;;;8.13;3.90;;;;;;;;;;5026367;28;20029;-69
2022/01/15 15:05:23;;;;;;;20.33;11.63;;;;;;;;;;5030527;28;20033;-68
2022/01/15 15:07:49;;;;;;;27.00;15.18;;;;;;;;;;5028402;28;20466;-71
2022/01/15 15:10:16;;;;;;;42.72;25.45;;;;;;;;;;5026659;28;20026;-70
2022/01/15 15:12:49;;;;;;;24.80;14.27;;;;;;;;;;5029247;28;20056;-69
2022/01/15 15:15:15;;;;;;;30.25;18.15;;;;;;;;;;5025862;28;20091;-71
2022/01/15 15:17:41;;;;;;;27.45;17.15;;;;;;;;;;5035481;28;20025;-70
2022/01/15 15:20:08;;;;;;;20.52;11.77;;;;;;;;;;5027222;28;20185;-71
2022/01/15 15:22:34;;;;;;;21.33;12.30;;;;;;;;;;5031483;28;20030;-71